createdAt,value
2019-05-19T00:00:34.298Z,99791.75
2019-05-19T00:03:00.621Z,99791.28
2019-05-19T00:05:26.936Z,99794.64
2019-05-19T00:07:53.262Z,99790.30
2019-05-19T00:10:19.596Z,99792.45
2019-05-19T00:12:46.003Z,99796.05
2019-05-19T00:15:12.463Z,99786.03
2019-05-19T00:17:38.738Z,99788.67
2019-05-19T00:20:05.779Z,99787.37
2019-05-19T00:22:32.090Z,99789.92
2019-05-19T00:24:58.212Z,99789.87
2019-05-19T00:27:24.451Z,99795.20
2019-05-19T00:29:50.752Z,99791.77
2019-05-19T00:32:17.107Z,99786.48
2019-05-19T00:34:43.337Z,99791.27
2019-05-19T00:37:09.452Z,99788.28
2019-05-19T00:39:35.597Z,99788.67
2019-05-19T00:42:01.809Z,99791.64
2019-05-19T00:44:27.910Z,99785.54
2019-05-19T00:46:54.214Z,99788.17
2019-05-19T00:49:20.636Z,99786.40
2019-05-19T00:51:46.955Z,99787.17
2019-05-19T00:54:14.320Z,99780.65
2019-05-19T00:56:41.327Z,99784.00
2019-05-19T00:59:08.256Z,99773.63
2019-05-19T01:01:34.564Z,99781.78
2019-05-19T01:04:00.753Z,99780.95
2019-05-19T01:06:26.871Z,99774.82
2019-05-19T01:08:53.178Z,99770.51
2019-05-19T01:11:19.317Z,99769.61
2019-05-19T01:13:45.519Z,99776.45
2019-05-19T01:16:11.751Z,99770.21
2019-05-19T01:18:37.982Z,99764.23
2019-05-19T01:21:04.382Z,99762.34
2019-05-19T01:23:30.603Z,99767.52
2019-05-19T01:25:56.846Z,99762.25
2019-05-19T01:28:23.061Z,99764.35
2019-05-19T01:30:49.163Z,99763.05
2019-05-19T01:33:15.534Z,99758.84
2019-05-19T01:35:41.678Z,99754.16
2019-05-19T01:38:07.797Z,99750.67
2019-05-19T01:40:34.013Z,99749.32
2019-05-19T01:43:00.259Z,99752.33
2019-05-19T01:45:26.609Z,99759.43
2019-05-19T01:47:52.857Z,99756.81
2019-05-19T01:50:19.185Z,99762.95
2019-05-19T01:52:45.471Z,99764.39
2019-05-19T01:55:12.109Z,99753.42
2019-05-19T01:57:38.252Z,99754.16
2019-05-19T02:00:06.087Z,99749.06
2019-05-19T02:02:32.421Z,99748.28
2019-05-19T02:04:58.638Z,99747.38
2019-05-19T02:07:24.793Z,99740.91
2019-05-19T02:09:51.101Z,99742.95
2019-05-19T02:12:17.337Z,99744.71
2019-05-19T02:14:43.574Z,99744.65
2019-05-19T02:17:09.808Z,99743.75
2019-05-19T02:19:35.943Z,99744.63
2019-05-19T02:22:02.164Z,99745.48
2019-05-19T02:24:28.554Z,99744.04
2019-05-19T02:26:54.773Z,99737.86
2019-05-19T02:29:21.123Z,99739.16
2019-05-19T02:31:47.332Z,99744.31
2019-05-19T02:34:13.566Z,99737.43
2019-05-19T02:36:39.884Z,99745.97
2019-05-19T02:39:06.107Z,99741.27
2019-05-19T02:41:32.630Z,99750.38
2019-05-19T02:44:00.811Z,99747.08
2019-05-19T02:46:28.533Z,99742.17
2019-05-19T02:48:56.575Z,99742.66
2019-05-19T02:51:25.070Z,99733.12
2019-05-19T02:53:52.147Z,99737.35
2019-05-19T02:56:19.533Z,99727.91
2019-05-19T02:58:45.988Z,99737.27
2019-05-19T03:01:13.303Z,99734.69
2019-05-19T03:03:39.507Z,99732.09
2019-05-19T03:06:05.688Z,99728.59
2019-05-19T03:08:31.812Z,99736.89
2019-05-19T03:10:57.950Z,99731.22
2019-05-19T03:13:24.209Z,99740.70
2019-05-19T03:15:50.484Z,99738.77
2019-05-19T03:18:16.667Z,99739.83
2019-05-19T03:20:42.971Z,99739.83
2019-05-19T03:23:09.308Z,99747.75
2019-05-19T03:25:35.538Z,99735.55
2019-05-19T03:28:01.901Z,99731.65
2019-05-19T03:30:36.538Z,99731.21
2019-05-19T03:33:10.919Z,99725.55
2019-05-19T03:35:38.269Z,99738.19
2019-05-19T03:38:04.577Z,99738.19
2019-05-19T03:40:30.804Z,99734.71
2019-05-19T03:42:57.054Z,99737.25
2019-05-19T03:45:23.397Z,99737.25
2019-05-19T03:47:49.720Z,99740.22
2019-05-19T03:50:15.984Z,99735.73
2019-05-19T03:52:42.328Z,99739.92
2019-05-19T03:55:08.665Z,99739.66
2019-05-19T03:57:36.003Z,99744.50
2019-05-19T04:00:04.239Z,99744.75
2019-05-19T04:02:30.444Z,99753.39
2019-05-19T04:04:56.698Z,99757.14
2019-05-19T04:07:22.829Z,99753.20
2019-05-19T04:09:49.055Z,99754.30
2019-05-19T04:12:15.295Z,99750.70
2019-05-19T04:14:41.453Z,99755.73
2019-05-19T04:17:07.728Z,99751.59
2019-05-19T04:19:33.860Z,99755.25
2019-05-19T04:21:59.982Z,99752.95
2019-05-19T04:24:26.219Z,99746.42
2019-05-19T04:26:54.348Z,99746.42
2019-05-19T04:29:20.617Z,99750.45
2019-05-19T04:31:46.820Z,99749.18
2019-05-19T04:34:13.038Z,99751.44
2019-05-19T04:36:39.791Z,99751.44
2019-05-19T04:39:06.138Z,99754.01
2019-05-19T04:41:32.401Z,99756.61
2019-05-19T04:43:59.639Z,99750.97
2019-05-19T04:46:25.754Z,99753.78
2019-05-19T04:48:52.083Z,99758.18
2019-05-19T04:51:18.241Z,99758.18
2019-05-19T04:53:44.455Z,99756.39
2019-05-19T04:56:10.609Z,99756.11
2019-05-19T04:58:36.737Z,99764.09
2019-05-19T05:01:02.846Z,99766.45
2019-05-19T05:03:28.985Z,99764.05
2019-05-19T05:05:55.195Z,99757.16
2019-05-19T05:08:29.885Z,99760.80
2019-05-19T05:10:49.446Z,99747.84
2019-05-19T05:13:15.660Z,99757.47
2019-05-19T05:15:41.901Z,99757.16
2019-05-19T05:18:08.103Z,99755.13
2019-05-19T05:20:34.398Z,99752.58
2019-05-19T05:23:00.699Z,99755.27
2019-05-19T05:25:26.952Z,99754.41
2019-05-19T05:27:53.296Z,99756.60
2019-05-19T05:30:19.620Z,99759.20
2019-05-19T05:32:45.848Z,99757.94
2019-05-19T05:35:12.156Z,99754.89
2019-05-19T05:37:38.415Z,99751.81
2019-05-19T05:40:05.767Z,99751.39
2019-05-19T05:42:32.187Z,99757.87
2019-05-19T05:44:58.453Z,99763.55
2019-05-19T05:47:24.568Z,99760.02
2019-05-19T05:49:50.771Z,99762.22
2019-05-19T05:52:16.920Z,99760.44
2019-05-19T05:54:43.120Z,99764.72
2019-05-19T05:57:09.298Z,99758.59
2019-05-19T05:59:35.556Z,99760.22
2019-05-19T06:02:01.619Z,99758.41
2019-05-19T06:04:27.810Z,99761.36
2019-05-19T06:06:53.932Z,99761.72
2019-05-19T06:09:20.212Z,99759.99
2019-05-19T06:11:46.360Z,99754.03
2019-05-19T06:14:12.600Z,99754.45
2019-05-19T06:16:38.795Z,99757.77
2019-05-19T06:19:05.025Z,99750.89
2019-05-19T06:21:31.130Z,99758.73
2019-05-19T06:23:57.260Z,99755.84
2019-05-19T06:26:23.505Z,99764.37
2019-05-19T06:28:49.959Z,99754.53
2019-05-19T06:31:16.191Z,99749.32
2019-05-19T06:33:42.513Z,99753.38
2019-05-19T06:36:08.760Z,99760.06
2019-05-19T06:38:35.328Z,99760.22
2019-05-19T06:41:01.720Z,99751.20
2019-05-19T06:43:27.859Z,99758.97
2019-05-19T06:45:54.214Z,99755.33
2019-05-19T06:48:20.467Z,99756.33
2019-05-19T06:50:46.822Z,99753.94
2019-05-19T06:53:14.623Z,99758.72
2019-05-19T06:55:41.385Z,99755.97
2019-05-19T06:58:07.724Z,99757.44
2019-05-19T07:00:33.942Z,99748.50
2019-05-19T07:03:00.092Z,99749.14
2019-05-19T07:05:26.532Z,99752.62
2019-05-19T07:07:52.816Z,99749.28
2019-05-19T07:10:19.125Z,99751.09
2019-05-19T07:12:45.362Z,99748.46
2019-05-19T07:15:11.912Z,99745.94
2019-05-19T07:17:38.154Z,99744.73
2019-05-19T07:20:04.749Z,99742.59
2019-05-19T07:22:31.104Z,99744.94
2019-05-19T07:24:57.220Z,99744.55
2019-05-19T07:27:23.317Z,99745.61
2019-05-19T07:29:49.551Z,99740.54
2019-05-19T07:32:15.676Z,99739.59
2019-05-19T07:34:41.890Z,99735.23
2019-05-19T07:37:08.108Z,99735.55
2019-05-19T07:39:34.672Z,99731.02
2019-05-19T07:42:01.032Z,99729.07
2019-05-19T07:44:27.255Z,99732.95
2019-05-19T07:46:53.503Z,99727.49
2019-05-19T07:49:19.851Z,99725.13
2019-05-19T07:51:46.256Z,99724.16
2019-05-19T07:54:12.465Z,99724.06
2019-05-19T07:56:38.727Z,99719.31
2019-05-19T07:59:07.767Z,99718.08
2019-05-19T08:01:33.941Z,99716.39
2019-05-19T08:04:00.273Z,99712.53
2019-05-19T08:06:26.470Z,99713.92
2019-05-19T08:08:52.699Z,99721.69
2019-05-19T08:11:18.809Z,99714.65
2019-05-19T08:13:45.143Z,99712.83
2019-05-19T08:16:11.356Z,99711.42
2019-05-19T08:18:37.684Z,99713.86
2019-05-19T08:21:03.994Z,99710.27
2019-05-19T08:23:30.206Z,99710.05
2019-05-19T08:25:56.368Z,99712.78
2019-05-19T08:28:22.490Z,99708.45
2019-05-19T08:30:48.870Z,99705.59
2019-05-19T08:33:15.144Z,99706.66
2019-05-19T08:35:41.378Z,99703.78
2019-05-19T08:38:07.756Z,99708.20
2019-05-19T08:40:34.067Z,99705.04
2019-05-19T08:43:00.183Z,99709.80
2019-05-19T08:45:26.253Z,99707.44
2019-05-19T08:47:52.669Z,99705.42
2019-05-19T08:50:19.070Z,99698.83
2019-05-19T08:52:45.271Z,99700.09
2019-05-19T08:55:11.677Z,99696.11
2019-05-19T08:57:37.797Z,99694.30
2019-05-19T09:00:06.421Z,99689.16
2019-05-19T09:02:33.361Z,99685.84
2019-05-19T09:04:59.645Z,99682.72
2019-05-19T09:07:26.017Z,99688.09
2019-05-19T09:09:52.204Z,99676.56
2019-05-19T09:12:18.469Z,99683.53
2019-05-19T09:14:45.119Z,99677.57
2019-05-19T09:17:11.525Z,99676.36
2019-05-19T09:19:37.935Z,99677.40
2019-05-19T09:22:04.172Z,99679.54
2019-05-19T09:24:31.182Z,99676.01
2019-05-19T09:26:58.441Z,99674.20
2019-05-19T09:29:24.571Z,99667.00
2019-05-19T09:31:50.917Z,99664.20
2019-05-19T09:34:17.040Z,99661.30
2019-05-19T09:36:43.174Z,99669.12
2019-05-19T09:39:09.405Z,99666.81
2019-05-19T09:41:35.725Z,99667.28
2019-05-19T09:44:02.404Z,99659.31
2019-05-19T09:46:28.511Z,99660.27
2019-05-19T09:49:13.369Z,99652.22
2019-05-19T09:51:39.603Z,99651.54
2019-05-19T09:54:05.813Z,99647.62
2019-05-19T09:56:32.270Z,99650.08
2019-05-19T09:58:58.810Z,99644.30
2019-05-19T10:01:25.198Z,99650.63
2019-05-19T10:03:51.393Z,99639.99
2019-05-19T10:06:17.658Z,99639.73
2019-05-19T10:08:47.792Z,99653.85
2019-05-19T10:11:54.975Z,99639.91
2019-05-19T10:14:21.328Z,99643.21
2019-05-19T10:16:47.478Z,99643.06
2019-05-19T10:19:13.732Z,99642.63
2019-05-19T10:21:40.136Z,99640.33
2019-05-19T10:24:06.460Z,99642.87
2019-05-19T10:26:32.728Z,99641.03
2019-05-19T10:28:59.065Z,99632.38
2019-05-19T10:31:25.532Z,99631.07
2019-05-19T10:33:52.468Z,99632.70
2019-05-19T10:36:18.755Z,99630.16
2019-05-19T10:38:45.092Z,99625.34
2019-05-19T10:41:11.234Z,99626.13
2019-05-19T10:43:37.531Z,99620.34
2019-05-19T10:46:03.764Z,99627.64
2019-05-19T10:48:30.081Z,99626.53
2019-05-19T10:50:56.523Z,99623.14
2019-05-19T10:53:22.762Z,99621.45
2019-05-19T10:55:48.996Z,99623.23
2019-05-19T10:58:15.171Z,99617.78
2019-05-19T11:00:41.519Z,99625.05
2019-05-19T11:03:07.930Z,99617.84
2019-05-19T11:05:34.468Z,99622.87
2019-05-19T11:08:00.877Z,99618.38
2019-05-19T11:10:28.089Z,99612.64
2019-05-19T11:12:54.379Z,99608.02
2019-05-19T11:15:20.716Z,99609.93
2019-05-19T11:17:46.964Z,99615.09
2019-05-19T11:20:13.405Z,99601.45
2019-05-19T11:22:39.691Z,99600.84
2019-05-19T11:25:06.149Z,99600.55
2019-05-19T11:27:32.410Z,99596.70
2019-05-19T11:29:58.541Z,99598.66
2019-05-19T11:32:24.906Z,99596.28
2019-05-19T11:34:51.236Z,99599.79
2019-05-19T11:37:17.467Z,99594.08
2019-05-19T11:39:43.807Z,99591.53
2019-05-19T11:42:10.150Z,99590.43
2019-05-19T11:44:43.361Z,99589.83
2019-05-19T11:47:09.505Z,99586.89
2019-05-19T11:49:35.837Z,99580.66
2019-05-19T11:52:01.958Z,99582.23
2019-05-19T11:54:28.174Z,99587.40
2019-05-19T11:56:54.387Z,99589.87
2019-05-19T11:59:20.513Z,99590.61
2019-05-19T12:01:46.967Z,99592.08
2019-05-19T12:04:13.199Z,99574.56
2019-05-19T12:06:40.181Z,99583.25
2019-05-19T12:09:06.670Z,99580.86
2019-05-19T12:11:33.028Z,99577.67
2019-05-19T12:13:59.235Z,99575.50
2019-05-19T12:16:25.596Z,99579.53
2019-05-19T12:18:51.962Z,99575.64
2019-05-19T12:21:18.103Z,99562.54
2019-05-19T12:23:44.253Z,99564.05
2019-05-19T12:26:22.857Z,99573.54
2019-05-19T12:28:38.633Z,99571.58
2019-05-19T12:31:06.048Z,99575.45
2019-05-19T12:33:32.322Z,99563.11
2019-05-19T12:35:58.577Z,99571.44
2019-05-19T12:38:24.797Z,99567.19
2019-05-19T12:40:51.057Z,99566.41
2019-05-19T12:43:18.508Z,99562.88
2019-05-19T12:45:44.870Z,99558.95
2019-05-19T12:48:11.069Z,99566.67
2019-05-19T12:50:37.457Z,99557.34
2019-05-19T12:53:03.810Z,99572.22
2019-05-19T12:55:30.147Z,99563.66
2019-05-19T12:57:56.424Z,99560.70
2019-05-19T13:00:22.725Z,99557.78
2019-05-19T13:02:49.097Z,99559.76
2019-05-19T13:05:15.411Z,99558.14
2019-05-19T13:07:41.804Z,99557.42
2019-05-19T13:10:08.171Z,99558.19
2019-05-19T13:12:34.639Z,99554.77
2019-05-19T13:15:00.885Z,99552.17
2019-05-19T13:17:27.142Z,99549.90
2019-05-19T13:19:53.479Z,99546.20
2019-05-19T13:22:19.771Z,99550.45
2019-05-19T13:24:45.921Z,99544.23
2019-05-19T13:27:12.272Z,99546.96
2019-05-19T13:29:38.642Z,99544.13
2019-05-19T13:32:05.016Z,99542.07
2019-05-19T13:34:31.271Z,99539.64
2019-05-19T13:36:57.505Z,99547.83
2019-05-19T13:39:23.770Z,99546.59
2019-05-19T13:41:50.133Z,99538.75
2019-05-19T13:44:16.459Z,99543.10
2019-05-19T13:46:42.766Z,99541.45
2019-05-19T13:49:09.037Z,99539.28
2019-05-19T13:51:35.279Z,99533.54
2019-05-19T13:54:01.617Z,99540.17
2019-05-19T13:56:28.160Z,99539.19
2019-05-19T13:58:54.467Z,99541.38
2019-05-19T14:01:28.523Z,99543.05
2019-05-19T14:03:52.026Z,99550.20
2019-05-19T14:06:17.719Z,99552.35
2019-05-19T14:08:44.871Z,99557.73
2019-05-19T14:11:11.095Z,99552.59
2019-05-19T14:13:37.202Z,99565.02
2019-05-19T14:16:03.494Z,99580.77
2019-05-19T14:18:29.877Z,99588.64
2019-05-19T14:20:56.107Z,99597.69
2019-05-19T14:23:22.481Z,99591.66
2019-05-19T14:25:48.583Z,99594.02
2019-05-19T14:28:14.935Z,99597.02
2019-05-19T14:30:41.381Z,99596.78
2019-05-19T14:33:07.716Z,99603.46
2019-05-19T14:35:33.866Z,99606.19
2019-05-19T14:38:00.076Z,99608.43
2019-05-19T14:40:26.388Z,99614.94
2019-05-19T14:43:00.275Z,99616.47
2019-05-19T14:45:26.558Z,99613.33
2019-05-19T14:47:52.980Z,99621.86
2019-05-19T14:50:19.680Z,99617.05
2019-05-19T14:52:46.420Z,99607.66
2019-05-19T14:55:12.958Z,99611.26
2019-05-19T14:57:44.872Z,99605.05
2019-05-19T15:00:08.678Z,99598.55
2019-05-19T15:02:34.878Z,99602.30
2019-05-19T15:05:01.288Z,99597.77
2019-05-19T15:07:27.566Z,99598.67
2019-05-19T15:09:54.273Z,99606.36
2019-05-19T15:12:20.461Z,99604.59
2019-05-19T15:14:46.901Z,99599.38
2019-05-19T15:17:13.102Z,99598.17
2019-05-19T15:19:40.342Z,99602.53
2019-05-19T15:22:06.619Z,99595.06
2019-05-19T15:24:32.869Z,99596.28
2019-05-19T15:26:59.056Z,99590.98
2019-05-19T15:29:25.438Z,99594.37
2019-05-19T15:31:51.553Z,99590.72
2019-05-19T15:34:17.901Z,99596.00
2019-05-19T15:36:44.246Z,99597.34
2019-05-19T15:39:10.716Z,99597.90
2019-05-19T15:41:36.992Z,99591.36
2019-05-19T15:44:03.460Z,99594.62
2019-05-19T15:46:30.054Z,99591.34
2019-05-19T15:48:56.182Z,99592.50
2019-05-19T15:51:28.430Z,99591.32
2019-05-19T15:53:50.702Z,99588.90
2019-05-19T15:56:17.156Z,99587.31
2019-05-19T15:58:43.365Z,99584.32
2019-05-19T16:01:09.603Z,99580.89
2019-05-19T16:03:35.804Z,99580.70
2019-05-19T16:06:02.163Z,99579.66
2019-05-19T16:08:28.528Z,99574.25
2019-05-19T16:10:54.754Z,99569.63
2019-05-19T16:13:22.110Z,99571.41
2019-05-19T16:15:48.646Z,99568.23
2019-05-19T16:18:15.010Z,99566.87
2019-05-19T16:20:41.174Z,99565.20
2019-05-19T16:23:07.479Z,99559.47
2019-05-19T16:25:33.812Z,99566.41
2019-05-19T16:28:00.032Z,99567.33
2019-05-19T16:30:26.253Z,99578.64
2019-05-19T16:32:52.582Z,99577.34
2019-05-19T16:35:20.041Z,99575.70
2019-05-19T16:37:46.207Z,99583.00
2019-05-19T16:40:12.901Z,99578.53
2019-05-19T16:42:39.514Z,99582.57
2019-05-19T16:45:07.645Z,99581.71
2019-05-19T16:47:34.829Z,99580.06
2019-05-19T16:50:01.163Z,99578.20
2019-05-19T16:52:27.410Z,99581.24
2019-05-19T16:55:12.201Z,99580.42
2019-05-19T16:57:38.657Z,99571.87
2019-05-19T17:00:05.409Z,99565.36
2019-05-19T17:02:33.108Z,99570.77
2019-05-19T17:04:59.269Z,99561.80
2019-05-19T17:07:25.483Z,99563.34
2019-05-19T17:09:51.715Z,99562.55
2019-05-19T17:12:18.260Z,99562.52
2019-05-19T17:14:44.788Z,99557.05
2019-05-19T17:17:10.910Z,99562.12
2019-05-19T17:19:37.162Z,99556.08
2019-05-19T17:22:03.270Z,99554.15
2019-05-19T17:24:29.704Z,99551.54
2019-05-19T17:26:55.919Z,99540.36
2019-05-19T17:29:22.126Z,99544.94
2019-05-19T17:31:48.223Z,99545.97
2019-05-19T17:34:14.429Z,99542.07
2019-05-19T17:36:40.670Z,99540.25
2019-05-19T17:39:07.239Z,99543.92
2019-05-19T17:41:33.511Z,99545.04
2019-05-19T17:43:59.642Z,99540.86
2019-05-19T17:46:26.095Z,99542.86
2019-05-19T17:48:52.333Z,99544.43
2019-05-19T17:51:18.753Z,99538.00
2019-05-19T17:53:45.020Z,99547.97
2019-05-19T17:56:12.314Z,99549.07
2019-05-19T17:58:38.834Z,99548.35
2019-05-19T18:01:05.159Z,99547.97
2019-05-19T18:03:32.421Z,99552.87
2019-05-19T18:05:58.552Z,99560.37
2019-05-19T18:08:24.855Z,99560.57
2019-05-19T18:10:51.211Z,99568.41
2019-05-19T18:13:17.466Z,99578.26
2019-05-19T18:15:43.837Z,99578.03
2019-05-19T18:18:10.248Z,99589.90
2019-05-19T18:20:36.539Z,99596.39
2019-05-19T18:23:02.958Z,99607.67
2019-05-19T18:25:29.315Z,99615.64
2019-05-19T18:27:55.521Z,99620.63
2019-05-19T18:30:21.935Z,99618.73
2019-05-19T18:32:48.212Z,99623.84
2019-05-19T18:35:14.780Z,99619.17
2019-05-19T18:37:41.019Z,99623.47
2019-05-19T18:40:07.838Z,99621.47
2019-05-19T18:42:34.021Z,99619.28
2019-05-19T18:45:00.401Z,99617.70
2019-05-19T18:47:26.711Z,99628.27
2019-05-19T18:49:52.947Z,99632.30
2019-05-19T18:52:19.358Z,99638.45
2019-05-19T18:54:45.588Z,99639.92
2019-05-19T18:57:11.950Z,99640.09
2019-05-19T18:59:46.895Z,99637.84
2019-05-19T19:02:06.826Z,99637.36
2019-05-19T19:04:33.222Z,99633.89
2019-05-19T19:06:59.569Z,99635.50
2019-05-19T19:09:26.991Z,99641.70
2019-05-19T19:11:53.340Z,99644.56
2019-05-19T19:14:19.566Z,99636.69
2019-05-19T19:16:45.679Z,99648.13
2019-05-19T19:19:12.003Z,99642.61
2019-05-19T19:21:38.248Z,99640.17
2019-05-19T19:24:04.517Z,99641.23
2019-05-19T19:26:31.061Z,99648.66
2019-05-19T19:28:57.288Z,99650.77
2019-05-19T19:31:23.535Z,99648.42
2019-05-19T19:33:49.917Z,99647.88
2019-05-19T19:36:16.094Z,99650.99
2019-05-19T19:38:42.568Z,99652.85
2019-05-19T19:41:09.009Z,99648.90
2019-05-19T19:43:35.366Z,99645.19
2019-05-19T19:46:01.671Z,99647.47
2019-05-19T19:48:28.068Z,99649.41
2019-05-19T19:50:54.396Z,99650.86
2019-05-19T19:53:20.776Z,99651.86
2019-05-19T19:55:47.337Z,99644.98
2019-05-19T19:58:13.663Z,99650.25
2019-05-19T20:00:42.558Z,99662.62
2019-05-19T20:03:08.879Z,99655.19
2019-05-19T20:05:37.272Z,99648.51
2019-05-19T20:08:04.747Z,99644.21
2019-05-19T20:10:31.008Z,99651.14
2019-05-19T20:12:57.237Z,99650.27
2019-05-19T20:15:23.554Z,99656.56
2019-05-19T20:17:49.955Z,99651.31
2019-05-19T20:20:16.303Z,99657.73
2019-05-19T20:22:42.695Z,99658.05
2019-05-19T20:25:09.087Z,99659.36
2019-05-19T20:27:35.337Z,99662.84
2019-05-19T20:30:02.077Z,99664.16
2019-05-19T20:32:28.487Z,99668.20
2019-05-19T20:34:54.696Z,99670.41
2019-05-19T20:37:21.042Z,99671.79
2019-05-19T20:39:47.444Z,99670.11
2019-05-19T20:42:13.702Z,99675.53
2019-05-19T20:44:39.958Z,99678.72
2019-05-19T20:47:06.314Z,99677.04
2019-05-19T20:49:32.674Z,99676.31
2019-05-19T20:51:58.795Z,99673.01
2019-05-19T20:54:25.060Z,99676.09
2019-05-19T20:56:51.164Z,99668.34
2019-05-19T20:59:17.518Z,99665.52
2019-05-19T21:01:45.080Z,99657.45
2019-05-19T21:04:11.582Z,99661.64
2019-05-19T21:06:38.036Z,99662.49
2019-05-19T21:09:04.674Z,99666.80
2019-05-19T21:11:32.159Z,99668.16
2019-05-19T21:13:58.566Z,99674.22
2019-05-19T21:16:24.824Z,99673.83
2019-05-19T21:19:08.119Z,99677.62
2019-05-19T21:21:34.389Z,99685.40
2019-05-19T21:24:00.627Z,99674.38
2019-05-19T21:26:26.785Z,99682.25
2019-05-19T21:28:52.870Z,99675.08
2019-05-19T21:31:19.325Z,99672.05
2019-05-19T21:33:45.456Z,99678.69
2019-05-19T21:36:11.726Z,99682.63
2019-05-19T21:38:38.078Z,99679.32
2019-05-19T21:41:04.313Z,99689.37
2019-05-19T21:43:30.419Z,99693.41
2019-05-19T21:45:56.622Z,99684.57
2019-05-19T21:48:33.070Z,99686.78
2019-05-19T21:50:59.499Z,99691.55
2019-05-19T21:53:25.733Z,99691.16
2019-05-19T21:55:51.877Z,99688.16
2019-05-19T21:58:18.115Z,99685.67
2019-05-19T22:00:44.773Z,99688.30
2019-05-19T22:03:11.213Z,99689.81
2019-05-19T22:05:51.213Z,99688.77
2019-05-19T22:08:10.434Z,99690.08
2019-05-19T22:10:36.764Z,99691.39
2019-05-19T22:13:03.062Z,99686.69
2019-05-19T22:15:29.277Z,99692.28
2019-05-19T22:17:56.633Z,99691.48
2019-05-19T22:20:22.934Z,99698.02
2019-05-19T22:22:49.291Z,99705.88
2019-05-19T22:25:15.660Z,99704.15
2019-05-19T22:27:42.006Z,99703.19
2019-05-19T22:30:08.505Z,99702.75
2019-05-19T22:32:34.831Z,99700.62
2019-05-19T22:35:01.054Z,99704.14
2019-05-19T22:37:27.275Z,99705.88
2019-05-19T22:39:53.521Z,99701.66
2019-05-19T22:42:19.640Z,99699.95
2019-05-19T22:44:45.800Z,99696.86
2019-05-19T22:47:11.932Z,99693.89
2019-05-19T22:49:38.158Z,99676.50
2019-05-19T22:52:04.389Z,99687.08
2019-05-19T22:54:30.739Z,99686.66
2019-05-19T22:56:56.934Z,99688.00
2019-05-19T22:59:23.153Z,99676.17
2019-05-19T23:01:51.743Z,99675.77
2019-05-19T23:04:17.710Z,99674.17
2019-05-19T23:06:43.919Z,99672.89
2019-05-19T23:09:10.282Z,99668.97
2019-05-19T23:11:36.620Z,99669.86
2019-05-19T23:14:03.058Z,99674.19
2019-05-19T23:16:29.213Z,99671.56
2019-05-19T23:18:55.411Z,99678.97
2019-05-19T23:21:21.558Z,99671.51
2019-05-19T23:23:47.703Z,99674.11
2019-05-19T23:26:13.927Z,99673.34
2019-05-19T23:28:40.066Z,99670.71
2019-05-19T23:31:06.160Z,99661.99
2019-05-19T23:33:32.366Z,99667.24
2019-05-19T23:35:58.507Z,99666.80
2019-05-19T23:38:24.748Z,99658.56
2019-05-19T23:40:51.079Z,99665.52
2019-05-19T23:43:17.258Z,99652.45
2019-05-19T23:45:43.693Z,99647.61
2019-05-19T23:48:10.098Z,99645.03
2019-05-19T23:50:36.329Z,99648.09
2019-05-19T23:53:02.608Z,99648.97
2019-05-19T23:55:28.728Z,99647.23
2019-05-19T23:57:55.067Z,99645.52
